Time;durP1;ratioP1;P1;durP2;ratioP2;P2;SDS_P1;SDS_P2;PMS_P1;PMS_P2;Temp;Humidity;BMP_temperature;BMP_pressure;BME280_temperature;BME280_humidity;BME280_pressure;Samples;Min_cycle;Max_cycle;Signal;HPM_P1;HPM_P2
2022/04/24 00:00:17;;;;;;;5.03;4.00;;;18.60;59.30;;;;;;10454732;28;20067;-56
2022/04/24 00:05:18;;;;;;;4.43;3.65;;;18.60;59.20;;;;;;10453793;28;20140;-56
2022/04/24 00:10:18;;;;;;;5.10;4.55;;;18.50;59.30;;;;;;10453668;28;20035;-57
2022/04/24 00:15:19;;;;;;;5.07;4.43;;;18.50;59.10;;;;;;10453880;28;20040;-57
2022/04/24 00:20:20;;;;;;;5.97;3.72;;;18.50;59.00;;;;;;10454993;28;20362;-56
2022/04/24 00:25:21;;;;;;;5.10;3.60;;;18.50;59.60;;;;;;10489537;28;20644;-57
2022/04/24 00:30:21;;;;;;;4.97;4.10;;;18.50;59.00;;;;;;10453835;28;20134;-57
2022/04/24 00:35:22;;;;;;;4.03;3.55;;;18.50;59.00;;;;;;10453658;28;20051;-57
2022/04/24 00:40:23;;;;;;;3.95;3.40;;;18.50;58.90;;;;;;10453833;28;20119;-57
2022/04/24 00:45:24;;;;;;;5.18;4.32;;;18.50;58.90;;;;;;10453523;28;20239;-56
2022/04/24 00:50:25;;;;;;;5.28;3.92;;;18.50;59.00;;;;;;10453993;28;20227;-57
2022/04/24 00:55:26;;;;;;;4.68;4.18;;;18.50;59.00;;;;;;10455632;28;20396;-57
2022/04/24 01:00:27;;;;;;;4.65;4.15;;;18.40;58.90;;;;;;10476715;28;20641;-57
2022/04/24 01:05:28;;;;;;;5.60;3.65;;;18.50;59.00;;;;;;10460664;28;20040;-56
2022/04/24 01:10:39;;;;;;;4.28;3.63;;;18.40;58.90;;;;;;10461142;28;20024;-57
2022/04/24 01:15:40;;;;;;;4.22;3.80;;;18.40;58.80;;;;;;10460791;28;20029;-56
2022/04/24 01:20:41;;;;;;;4.95;3.92;;;18.40;58.90;;;;;;10464204;28;20028;-56
2022/04/24 01:25:41;;;;;;;4.57;3.90;;;18.40;58.90;;;;;;10471664;28;20061;-56
2022/04/24 01:30:42;;;;;;;4.35;3.67;;;18.40;59.00;;;;;;10458490;28;20112;-56
2022/04/24 01:35:42;;;;;;;6.35;4.57;;;18.40;59.00;;;;;;10459905;28;20060;-56
2022/04/24 01:40:43;;;;;;;4.82;4.20;;;18.40;59.00;;;;;;10475220;28;20060;-56
2022/04/24 01:45:44;;;;;;;4.32;3.72;;;18.40;59.50;;;;;;10459415;28;20504;-56
2022/04/24 01:50:45;;;;;;;3.63;3.22;;;18.40;58.80;;;;;;10459587;28;20033;-55
2022/04/24 01:55:46;;;;;;;5.63;4.57;;;18.40;58.80;;;;;;10459082;28;20037;-53
2022/04/24 02:00:47;;;;;;;4.38;3.60;;;18.40;58.70;;;;;;10459030;28;20112;-55
2022/04/24 02:05:48;;;;;;;4.18;3.70;;;18.40;58.90;;;;;;10457013;28;20035;-55
2022/04/24 02:10:49;;;;;;;3.95;3.20;;;18.30;58.90;;;;;;10458718;28;20112;-56
2022/04/24 02:15:50;;;;;;;4.68;4.28;;;18.30;58.80;;;;;;10458321;28;20056;-56
2022/04/24 02:20:50;;;;;;;4.38;3.33;;;18.30;58.80;;;;;;10463577;28;20035;-56
2022/04/24 02:25:51;;;;;;;4.43;3.83;;;18.30;58.80;;;;;;10483722;28;20102;-56
2022/04/24 02:30:52;;;;;;;3.90;3.40;;;18.30;59.00;;;;;;10472980;28;20073;-56
2022/04/24 02:35:52;;;;;;;4.20;3.33;;;18.30;58.90;;;;;;10457471;28;20060;-56
2022/04/24 02:40:54;;;;;;;4.38;3.63;;;18.30;59.00;;;;;;10472788;28;20029;-56
2022/04/24 02:45:54;;;;;;;4.53;3.78;;;18.30;59.00;;;;;;10457011;28;20043;-56
2022/04/24 02:50:57;;;;;;;4.47;3.58;;;18.30;59.00;;;;;;10457270;28;20035;-56
2022/04/24 02:55:58;;;;;;;4.82;3.92;;;18.20;58.80;;;;;;10456274;28;20036;-56
2022/04/24 03:00:59;;;;;;;6.97;3.83;;;18.20;58.90;;;;;;10456531;28;20033;-56
2022/04/24 03:06:00;;;;;;;5.82;3.80;;;18.20;58.90;;;;;;10455907;28;20047;-56
2022/04/24 03:11:00;;;;;;;4.50;3.78;;;18.20;58.90;;;;;;10456302;28;20108;-56
2022/04/24 03:16:01;;;;;;;3.83;3.42;;;18.20;58.90;;;;;;10471155;28;20461;-56
2022/04/24 03:21:02;;;;;;;4.20;3.53;;;18.20;58.90;;;;;;10462020;28;20044;-56
2022/04/24 03:26:03;;;;;;;4.10;3.70;;;18.20;59.00;;;;;;10464618;28;20377;-56
2022/04/24 03:31:03;;;;;;;4.05;3.50;;;18.20;59.00;;;;;;10454272;28;20508;-57
2022/04/24 03:36:04;;;;;;;4.88;3.65;;;18.20;58.80;;;;;;10455017;28;20480;-56
2022/04/24 03:41:05;;;;;;;5.35;3.92;;;18.20;58.90;;;;;;10455034;28;20497;-57
2022/04/24 03:46:05;;;;;;;4.60;4.07;;;18.20;58.90;;;;;;10454746;28;20112;-56
2022/04/24 03:51:08;;;;;;;4.95;3.85;;;18.20;58.90;;;;;;10455214;28;20025;-56
2022/04/24 03:56:08;;;;;;;3.92;3.53;;;18.10;58.90;;;;;;10454451;28;20070;-56
2022/04/24 04:01:09;;;;;;;3.90;2.97;;;18.10;58.90;;;;;;10454693;28;20386;-56
2022/04/24 04:06:10;;;;;;;4.97;3.50;;;18.20;59.00;;;;;;10454517;28;20025;-57
2022/04/24 04:11:11;;;;;;;3.78;3.38;;;18.10;58.80;;;;;;10454420;28;20049;-56
2022/04/24 04:16:12;;;;;;;4.95;3.67;;;18.10;58.90;;;;;;10451287;28;20418;-56
2022/04/24 04:21:12;;;;;;;4.07;3.42;;;18.10;58.80;;;;;;10461645;28;20064;-56
2022/04/24 04:26:17;;;;;;;3.97;3.08;;;18.10;58.80;;;;;;10476796;28;20120;-56
2022/04/24 04:31:18;;;;;;;4.35;3.15;;;18.10;58.90;;;;;;10457955;28;20033;-55
2022/04/24 04:36:19;;;;;;;4.28;3.45;;;18.10;58.90;;;;;;10458740;28;20033;-56
2022/04/24 04:41:20;;;;;;;3.97;3.38;;;18.10;58.90;;;;;;10450748;28;20029;-56
2022/04/24 04:46:21;;;;;;;5.15;3.47;;;18.00;58.80;;;;;;10441795;28;20457;-56
2022/04/24 04:51:21;;;;;;;3.72;2.70;;;18.00;58.90;;;;;;10477263;28;20108;-57
2022/04/24 04:56:23;;;;;;;5.10;3.97;;;18.00;58.90;;;;;;10461527;28;20039;-56
2022/04/24 05:01:23;;;;;;;3.75;2.90;;;18.00;58.90;;;;;;10481384;28;20037;-56
2022/04/24 05:06:24;;;;;;;4.63;3.22;;;18.10;59.40;;;;;;10464393;28;20132;-56
2022/04/24 05:11:25;;;;;;;6.65;3.88;;;18.10;59.50;;;;;;10460421;28;20043;-57
2022/04/24 05:16:25;;;;;;;7.70;4.97;;;18.10;59.30;;;;;;10462838;28;20107;-58
2022/04/24 05:21:26;;;;;;;9.45;4.55;;;18.40;59.80;;;;;;10442911;28;20068;-56
2022/04/24 05:26:27;;;;;;;9.95;5.10;;;18.40;60.80;;;;;;10459681;28;20036;-56
2022/04/24 05:31:30;;;;;;;10.85;4.70;;;18.30;61.00;;;;;;10458944;28;20049;-56
2022/04/24 05:36:30;;;;;;;11.95;4.95;;;18.40;61.10;;;;;;10460011;28;20090;-56
2022/04/24 05:41:31;;;;;;;14.43;4.65;;;18.30;61.10;;;;;;10459555;28;20060;-54
2022/04/24 05:46:32;;;;;;;15.50;5.28;;;18.30;61.20;;;;;;10459456;28;20080;-58
2022/04/24 05:51:33;;;;;;;18.92;5.78;;;18.30;61.40;;;;;;10459657;28;20051;-58
2022/04/24 05:56:34;;;;;;;15.40;5.68;;;18.30;61.00;;;;;;10459085;28;20032;-58
2022/04/24 06:01:35;;;;;;;16.00;5.47;;;18.20;61.00;;;;;;10458670;28;20083;-59
2022/04/24 06:06:36;;;;;;;19.80;6.30;;;18.20;61.00;;;;;;10458451;28;20476;-57
2022/04/24 06:11:41;;;;;;;19.52;5.82;;;18.20;61.30;;;;;;10458754;28;20114;-59
2022/04/24 06:16:41;;;;;;;21.48;6.38;;;18.20;60.90;;;;;;10458449;28;20059;-59
2022/04/24 06:21:42;;;;;;;17.88;5.60;;;18.20;60.90;;;;;;10470557;28;20266;-57
2022/04/24 06:26:44;;;;;;;14.52;5.38;;;18.20;60.90;;;;;;10462735;28;20029;-57
2022/04/24 06:31:45;;;;;;;21.17;6.13;;;18.20;63.20;;;;;;10457066;28;20742;-57
2022/04/24 06:36:45;;;;;;;21.92;6.22;;;18.20;61.20;;;;;;10456321;28;20186;-56
2022/04/24 06:41:46;;;;;;;14.80;5.97;;;18.20;60.90;;;;;;10456611;28;20144;-55
2022/04/24 06:46:47;;;;;;;14.45;7.28;;;18.20;61.90;;;;;;10456515;28;20048;-56
2022/04/24 06:51:47;;;;;;;31.52;7.00;;;18.30;60.80;;;;;;10455786;28;20064;-55
2022/04/24 06:56:48;;;;;;;18.77;6.72;;;18.40;60.10;;;;;;10456518;28;20052;-57
2022/04/24 07:01:48;;;;;;;26.35;7.10;;;18.40;60.90;;;;;;10471539;28;20503;-59
2022/04/24 07:06:49;;;;;;;13.00;5.78;;;18.40;60.30;;;;;;10456351;28;20079;-56
2022/04/24 07:11:50;;;;;;;22.90;6.03;;;18.30;60.00;;;;;;10455965;28;20112;-59
2022/04/24 07:16:50;;;;;;;16.50;6.18;;;18.40;59.90;;;;;;10454918;28;20105;-58
2022/04/24 07:21:51;;;;;;;15.70;7.70;;;18.50;60.00;;;;;;10468780;28;20437;-58
2022/04/24 07:26:52;;;;;;;20.02;7.07;;;18.60;59.90;;;;;;10493621;28;20056;-59
2022/04/24 07:31:53;;;;;;;18.17;6.95;;;18.60;60.10;;;;;;10455396;28;20067;-59
2022/04/24 07:36:53;;;;;;;16.05;6.80;;;18.60;59.90;;;;;;10455313;28;20048;-57
2022/04/24 07:41:54;;;;;;;13.35;7.10;;;18.60;60.10;;;;;;10454161;28;20064;-61
2022/04/24 07:46:55;;;;;;;21.35;5.82;;;18.60;60.20;;;;;;10470087;28;20139;-58
2022/04/24 07:51:55;;;;;;;17.77;5.80;;;18.50;59.80;;;;;;10454194;28;20053;-58
2022/04/24 07:56:56;;;;;;;13.05;6.22;;;18.50;60.00;;;;;;10453425;28;20060;-58
2022/04/24 08:01:57;;;;;;;21.73;5.82;;;18.40;60.00;;;;;;10453307;28;20075;-57
2022/04/24 08:06:57;;;;;;;13.32;6.15;;;18.40;60.20;;;;;;10453855;28;20114;-59
2022/04/24 08:11:58;;;;;;;15.98;5.88;;;18.40;60.30;;;;;;10468841;28;20075;-59
2022/04/24 08:16:59;;;;;;;13.15;5.53;;;18.40;60.10;;;;;;10459529;28;20075;-60
2022/04/24 08:21:59;;;;;;;11.13;5.15;;;18.40;59.90;;;;;;10463598;28;20047;-59
2022/04/24 08:27:00;;;;;;;16.65;5.38;;;18.40;59.70;;;;;;10454162;28;20112;-61
2022/04/24 08:32:01;;;;;;;14.30;5.47;;;18.40;59.60;;;;;;10449427;28;20049;-62
2022/04/24 08:37:01;;;;;;;10.88;5.32;;;18.50;59.60;;;;;;10452917;28;20116;-62
2022/04/24 08:42:05;;;;;;;14.50;6.15;;;18.40;59.30;;;;;;10452472;28;20032;-60
2022/04/24 08:47:07;;;;;;;10.32;5.05;;;18.40;58.80;;;;;;10469044;28;20041;-59
2022/04/24 08:52:10;;;;;;;14.18;4.90;;;18.50;58.30;;;;;;10452285;28;20500;-58
2022/04/24 08:57:12;;;;;;;14.85;4.78;;;18.60;59.00;;;;;;10453188;28;20033;-59
2022/04/24 09:02:14;;;;;;;10.25;5.40;;;18.60;58.20;;;;;;10468917;28;20108;-60
2022/04/24 09:07:17;;;;;;;11.05;5.10;;;18.60;58.30;;;;;;10452034;28;20106;-60
2022/04/24 09:12:28;;;;;;;8.25;4.80;;;18.60;58.40;;;;;;10428737;28;20105;-59
2022/04/24 09:17:34;;;;;;;11.63;4.97;;;18.50;58.60;;;;;;10441571;28;20025;-58
2022/04/24 09:22:38;;;;;;;8.30;4.32;;;18.50;59.00;;;;;;10479639;28;20025;-60
2022/04/24 09:27:40;;;;;;;8.85;4.22;;;18.50;58.70;;;;;;10482747;28;20460;-61
2022/04/24 09:32:48;;;;;;;18.33;4.97;;;18.50;58.60;;;;;;10458239;28;20037;-60
2022/04/24 09:37:48;;;;;;;9.65;4.00;;;18.50;58.50;;;;;;10457939;28;20036;-59
2022/04/24 09:42:55;;;;;;;9.50;5.65;;;18.50;58.60;;;;;;10455808;28;20040;-60
2022/04/24 09:47:59;;;;;;;8.77;5.43;;;18.50;58.60;;;;;;10472818;28;20123;-60
2022/04/24 09:53:03;;;;;;;7.50;4.32;;;18.50;58.70;;;;;;10455868;28;20110;-61
2022/04/24 09:58:05;;;;;;;9.85;4.55;;;18.50;58.70;;;;;;10456895;28;20033;-60
2022/04/24 10:03:08;;;;;;;10.10;4.28;;;18.60;58.80;;;;;;10457099;28;20037;-59
2022/04/24 10:08:09;;;;;;;7.93;4.32;;;18.60;58.90;;;;;;10457113;28;20040;-59
2022/04/24 10:13:12;;;;;;;8.00;4.78;;;18.60;58.90;;;;;;10458190;28;20041;-59
2022/04/24 10:19:00;;;;;;;8.60;4.25;;;18.60;58.90;;;;;;10456790;28;20504;-60
2022/04/24 10:24:08;;;;;;;6.43;4.05;;;18.70;58.90;;;;;;10488791;28;20382;-61
2022/04/24 10:29:10;;;;;;;8.57;4.05;;;18.70;58.90;;;;;;10497826;28;20028;-60
2022/04/24 10:34:13;;;;;;;6.22;4.00;;;18.70;58.80;;;;;;10498683;28;20403;-60
2022/04/24 10:39:16;;;;;;;5.63;4.05;;;18.70;59.40;;;;;;10498562;28;20032;-60
2022/04/24 10:44:18;;;;;;;6.53;4.15;;;18.70;58.80;;;;;;10498329;28;20033;-60
2022/04/24 10:49:19;;;;;;;8.85;3.47;;;18.80;58.70;;;;;;10498106;28;20035;-60
2022/04/24 10:54:32;;;;;;;6.55;4.15;;;18.80;58.60;;;;;;10513276;28;20119;-60
2022/04/24 10:59:51;;;;;;;4.65;3.83;;;18.80;58.60;;;;;;10498059;28;20057;-60
2022/04/24 11:05:02;;;;;;;5.10;3.80;;;18.80;58.50;;;;;;10497412;28;20519;-58
2022/04/24 11:10:11;;;;;;;6.47;3.90;;;18.90;58.70;;;;;;10512544;28;20028;-60
2022/04/24 11:15:14;;;;;;;;;;;18.90;58.60;;;;;;10512847;28;20028;-60
2022/04/24 11:20:16;;;;;;;4.80;3.90;;;18.90;58.60;;;;;;10496868;28;20312;-60
2022/04/24 11:25:19;;;;;;;6.35;3.83;;;18.90;58.70;;;;;;10509482;28;20024;-60
2022/04/24 11:30:28;;;;;;;6.10;3.78;;;18.90;58.70;;;;;;10495160;28;20078;-60
2022/04/24 11:35:31;;;;;;;7.30;4.30;;;19.00;58.70;;;;;;10496415;28;20043;-58
2022/04/24 11:40:33;;;;;;;4.82;3.75;;;18.90;58.70;;;;;;10495841;28;20033;-59
2022/04/24 11:50:55;;;;;;;5.05;3.50;;;18.90;58.70;;;;;;10509606;28;20036;-59
2022/04/24 11:56:02;;;;;;;6.10;3.50;;;19.00;58.50;;;;;;10495717;28;20637;-60
2022/04/24 12:01:10;;;;;;;5.03;3.40;;;19.10;58.60;;;;;;10510683;28;20108;-60
2022/04/24 12:06:11;;;;;;;4.63;3.40;;;19.10;58.50;;;;;;10495465;28;20473;-60
2022/04/24 12:11:30;;;;;;;4.32;3.58;;;19.00;58.80;;;;;;10510982;28;20411;-58
2022/04/24 12:16:32;;;;;;;4.55;3.70;;;19.10;58.80;;;;;;10495840;28;20063;-60
2022/04/24 12:21:50;;;;;;;5.80;3.58;;;19.10;58.60;;;;;;10510709;28;20025;-58
2022/04/24 12:26:52;;;;;;;4.82;3.17;;;19.10;58.60;;;;;;10494829;28;20028;-59
2022/04/24 12:32:06;;;;;;;4.18;3.15;;;19.10;58.80;;;;;;10494909;28;20045;-60
2022/04/24 12:37:08;;;;;;;5.28;3.25;;;19.10;58.80;;;;;;10495059;28;20031;-59
2022/04/24 12:42:17;;;;;;;4.50;3.60;;;19.10;58.70;;;;;;10495123;28;20025;-61
2022/04/24 12:47:19;;;;;;;;;;;19.10;58.90;;;;;;10495147;28;20039;-59
2022/04/24 12:52:21;;;;;;;3.78;2.65;;;19.10;58.70;;;;;;10514062;28;19908;-60
2022/04/24 12:57:22;;;;;;;4.75;2.83;;;19.20;58.50;;;;;;10502891;28;20028;-57
2022/04/24 13:02:23;;;;;;;4.40;2.83;;;19.10;58.90;;;;;;10517944;28;20149;-59
2022/04/24 13:07:25;;;;;;;4.43;3.20;;;19.10;59.30;;;;;;10502406;28;20036;-60
2022/04/24 13:12:26;;;;;;;4.05;2.97;;;19.10;59.70;;;;;;10501966;28;20029;-60
2022/04/24 13:22:46;;;;;;;3.65;3.00;;;19.00;60.00;;;;;;10501658;28;20060;-59
2022/04/24 13:27:47;;;;;;;4.63;3.78;;;19.10;60.20;;;;;;10501183;28;20052;-59
2022/04/24 13:32:48;;;;;;;3.90;2.92;;;19.20;60.20;;;;;;10516500;28;20102;-59
2022/04/24 13:43:07;;;;;;;3.43;2.90;;;19.30;60.10;;;;;;10514646;28;20439;-59
2022/04/24 13:48:10;;;;;;;4.47;3.58;;;19.20;60.20;;;;;;10516256;28;20021;-60
2022/04/24 13:53:11;;;;;;;3.38;2.63;;;19.10;60.20;;;;;;10500503;28;20039;-59
2022/04/24 13:58:12;;;;;;;3.75;2.80;;;19.10;60.30;;;;;;10515794;28;20469;-59
2022/04/24 14:03:13;;;;;;;3.13;2.70;;;19.00;60.10;;;;;;10515669;28;20181;-60
2022/04/24 14:08:15;;;;;;;3.50;2.70;;;19.10;60.20;;;;;;10499899;28;20025;-59
2022/04/24 14:13:16;;;;;;;4.03;2.80;;;19.10;60.20;;;;;;10499618;28;20109;-59
2022/04/24 14:18:16;;;;;;;3.05;2.75;;;19.00;60.20;;;;;;10499313;28;20391;-60
2022/04/24 14:23:20;;;;;;;4.60;3.00;;;19.00;60.20;;;;;;10499121;28;20108;-59
2022/04/24 14:28:21;;;;;;;4.57;2.90;;;19.10;60.00;;;;;;10499330;28;20025;-60
2022/04/24 14:33:21;;;;;;;3.63;2.88;;;19.10;60.00;;;;;;10499130;28;20045;-57
2022/04/24 14:38:22;;;;;;;4.65;3.08;;;19.10;60.10;;;;;;10498676;28;20037;-59
2022/04/24 14:43:23;;;;;;;3.13;2.80;;;19.00;60.00;;;;;;10498488;28;20377;-59
2022/04/24 14:59:03;;;;;;;3.03;2.58;;;19.10;59.80;;;;;;10497884;28;20457;-58
2022/04/24 15:04:04;;;;;;;4.00;2.90;;;19.10;59.80;;;;;;10497744;28;20040;-59
2022/04/24 15:09:04;;;;;;;3.60;2.53;;;19.10;59.90;;;;;;10497306;28;20025;-59
2022/04/24 15:14:05;;;;;;;3.72;3.15;;;19.00;59.90;;;;;;10512346;28;20064;-59
2022/04/24 15:19:06;;;;;;;3.85;2.38;;;19.00;60.00;;;;;;10496930;28;20032;-59
2022/04/24 15:24:08;;;;;;;3.30;2.63;;;19.00;60.10;;;;;;10496557;28;20040;-60
2022/04/24 15:29:09;;;;;;;3.33;2.53;;;18.90;59.80;;;;;;10496667;28;20028;-59
2022/04/24 15:34:10;;;;;;;3.03;2.63;;;18.90;59.90;;;;;;10496269;28;20057;-59
2022/04/24 15:39:11;;;;;;;3.08;2.40;;;18.90;60.00;;;;;;10496423;28;20111;-60
2022/04/24 15:44:11;;;;;;;3.67;2.65;;;18.90;60.00;;;;;;10496024;28;20563;-58
2022/04/24 15:49:13;;;;;;;3.25;2.70;;;18.90;59.90;;;;;;10496492;28;20048;-59
2022/04/24 15:54:14;;;;;;;3.15;2.50;;;18.90;59.90;;;;;;10511685;28;20025;-59
2022/04/24 15:59:14;;;;;;;3.92;2.70;;;18.90;59.90;;;;;;10495602;28;20061;-57
2022/04/24 16:04:15;;;;;;;2.90;2.40;;;18.90;59.80;;;;;;10494091;28;20136;-58
2022/04/24 16:09:16;;;;;;;3.75;2.47;;;18.90;59.70;;;;;;10495519;28;20669;-59
2022/04/24 16:14:17;;;;;;;2.75;2.20;;;18.90;59.80;;;;;;10495481;28;20032;-59
2022/04/24 16:19:17;;;;;;;3.40;2.50;;;18.90;60.00;;;;;;10510704;28;20024;-59
2022/04/24 16:24:18;;;;;;;2.90;2.30;;;18.80;59.90;;;;;;10507699;28;20111;-60
2022/04/24 16:34:38;;;;;;;3.13;2.70;;;18.80;59.90;;;;;;10517237;28;20048;-60
2022/04/24 16:39:39;;;;;;;3.30;2.30;;;18.80;59.90;;;;;;10503404;28;20055;-60
2022/04/24 16:44:40;;;;;;;4.30;2.92;;;18.80;59.90;;;;;;10503076;28;20024;-60
2022/04/24 16:49:41;;;;;;;3.03;2.42;;;18.80;59.90;;;;;;10502827;28;20031;-60
2022/04/24 17:00:02;;;;;;;2.92;2.25;;;18.80;59.70;;;;;;10503041;28;20408;-60
2022/04/24 17:05:04;;;;;;;3.40;2.30;;;18.80;59.70;;;;;;10502071;28;20071;-60
2022/04/24 17:10:06;;;;;;;3.00;2.50;;;18.80;59.70;;;;;;10502136;28;20485;-59
2022/04/24 17:15:08;;;;;;;4.10;2.25;;;18.80;59.80;;;;;;10502312;28;20364;-59
2022/04/24 17:20:09;;;;;;;2.97;2.40;;;18.80;59.80;;;;;;10517406;28;20412;-60
2022/04/24 17:25:10;;;;;;;2.40;1.95;;;18.80;59.90;;;;;;10514092;28;20060;-59
2022/04/24 17:30:11;;;;;;;3.08;2.42;;;18.80;59.90;;;;;;10501322;28;20496;-59
2022/04/24 17:35:12;;;;;;;3.28;2.35;;;18.80;60.00;;;;;;10501098;28;20036;-59
2022/04/24 17:40:12;;;;;;;2.10;1.90;;;18.70;60.00;;;;;;10500400;28;20103;-59
2022/04/24 17:45:15;;;;;;;2.53;2.22;;;18.70;59.90;;;;;;10501275;28;20082;-60
2022/04/24 17:50:18;;;;;;;2.80;2.47;;;18.70;59.90;;;;;;10500499;28;20021;-59
2022/04/24 17:55:19;;;;;;;2.88;2.25;;;18.70;59.70;;;;;;10500525;28;20020;-59
2022/04/24 18:00:20;;;;;;;2.78;2.10;;;18.70;59.60;;;;;;10500374;28;20051;-60
2022/04/24 18:05:21;;;;;;;2.58;2.22;;;18.70;59.60;;;;;;10499901;28;20032;-60
2022/04/24 18:10:22;;;;;;;2.33;1.90;;;18.70;59.50;;;;;;10500006;28;20445;-60
2022/04/24 18:15:22;;;;;;;2.92;2.17;;;18.70;59.50;;;;;;10515409;28;20036;-58
2022/04/24 18:20:24;;;;;;;2.13;1.83;;;18.70;59.40;;;;;;10499328;28;20032;-59
2022/04/24 18:25:25;;;;;;;2.78;2.10;;;18.70;59.30;;;;;;10514678;28;20033;-59
2022/04/24 18:30:26;;;;;;;2.45;1.90;;;18.60;59.30;;;;;;10498973;28;20080;-59
2022/04/24 18:37:35;;;;;;;2.42;2.10;;;18.60;59.30;;;;;;10499484;28;20077;-59
2022/04/24 18:40:48;;;;;;;2.60;2.15;;;18.60;59.30;;;;;;10498455;28;20111;-59
2022/04/24 18:45:48;;;;;;;2.78;2.10;;;18.60;59.30;;;;;;10513877;28;20036;-57
2022/04/24 18:50:49;;;;;;;1.98;1.75;;;18.60;59.30;;;;;;10497282;28;20064;-59
2022/04/24 18:55:50;;;;;;;2.33;1.85;;;18.60;59.30;;;;;;10513590;28;20052;-59
2022/04/24 19:00:50;;;;;;;2.50;1.90;;;18.60;59.40;;;;;;10513567;28;20103;-59
2022/04/24 19:11:23;;;;;;;2.28;1.80;;;18.60;59.60;;;;;;10498072;28;20044;-60
2022/04/24 19:16:24;;;;;;;2.63;1.95;;;18.60;59.60;;;;;;10497171;28;20029;-60
2022/04/24 19:21:27;;;;;;;2.92;2.00;;;18.60;59.50;;;;;;10497108;28;20448;-60
2022/04/24 19:26:29;;;;;;;2.20;1.70;;;18.60;59.50;;;;;;10495623;28;20020;-59
2022/04/24 19:31:30;;;;;;;2.67;1.73;;;18.60;59.50;;;;;;10495264;28;20516;-60
2022/04/24 19:36:31;;;;;;;2.35;1.77;;;18.60;59.60;;;;;;10510927;28;20103;-59
2022/04/24 19:41:32;;;;;;;1.85;1.70;;;18.60;59.40;;;;;;10495153;28;20024;-60
2022/04/24 19:46:33;;;;;;;2.92;2.58;;;18.60;59.30;;;;;;10494309;28;20028;-60
2022/04/24 19:51:34;;;;;;;2.55;2.03;;;18.60;59.00;;;;;;10510491;28;20576;-60
2022/04/24 19:56:34;;;;;;;3.30;1.92;;;18.60;59.00;;;;;;10494860;28;20064;-57
2022/04/24 20:01:35;;;;;;;3.30;1.95;;;18.50;59.00;;;;;;10494695;28;20072;-57
2022/04/24 20:06:37;;;;;;;2.55;1.73;;;18.60;59.00;;;;;;10494421;28;20035;-58
2022/04/24 20:11:40;;;;;;;2.40;1.40;;;18.50;59.00;;;;;;10494444;28;20551;-59
2022/04/24 20:16:41;;;;;;;2.85;1.70;;;18.50;58.90;;;;;;10494855;28;20036;-59
2022/04/24 20:21:41;;;;;;;1.63;1.30;;;18.60;58.90;;;;;;10494111;28;20037;-60
2022/04/24 20:26:42;;;;;;;2.45;1.63;;;18.50;58.90;;;;;;10509905;28;20440;-58
2022/04/24 20:31:44;;;;;;;2.60;2.35;;;18.50;58.90;;;;;;10493770;28;20043;-59
2022/04/24 20:36:48;;;;;;;1.67;1.35;;;18.50;59.00;;;;;;10509322;28;20075;-59
2022/04/24 20:41:49;;;;;;;2.53;2.08;;;18.50;59.40;;;;;;10493746;28;20107;-59
2022/04/24 20:46:50;;;;;;;1.70;1.50;;;18.50;58.80;;;;;;10493788;28;20445;-58
2022/04/24 20:51:51;;;;;;;1.98;1.50;;;18.50;58.90;;;;;;10493677;28;20112;-57
2022/04/24 20:56:52;;;;;;;2.00;1.40;;;18.50;59.00;;;;;;10509433;28;20035;-60
2022/04/24 21:01:53;;;;;;;2.22;1.75;;;18.50;58.90;;;;;;10509827;28;20047;-59
2022/04/24 21:06:54;;;;;;;1.98;1.25;;;18.40;58.90;;;;;;10493287;28;20064;-60
2022/04/24 21:11:54;;;;;;;2.33;1.60;;;18.40;58.90;;;;;;10495000;28;20028;-59
2022/04/24 21:17:00;;;;;;;1.95;1.35;;;18.40;58.90;;;;;;10516535;28;20028;-60
2022/04/24 21:22:03;;;;;;;1.80;1.45;;;18.40;58.90;;;;;;10501096;28;20133;-59
2022/04/24 21:27:04;;;;;;;1.75;1.15;;;18.40;59.00;;;;;;10515945;28;20373;-58
2022/04/24 21:32:05;;;;;;;2.15;1.50;;;18.40;59.10;;;;;;10500419;28;20045;-58
2022/04/24 21:37:05;;;;;;;2.78;1.85;;;18.40;59.20;;;;;;10499999;28;20032;-58
2022/04/24 21:42:07;;;;;;;2.15;1.30;;;18.40;59.10;;;;;;10499942;28;20077;-59
2022/04/24 21:47:08;;;;;;;2.33;1.45;;;18.40;59.00;;;;;;10515355;28;20043;-60
2022/04/24 21:52:09;;;;;;;2.15;1.55;;;18.40;59.00;;;;;;10499626;28;20029;-60
2022/04/24 21:57:10;;;;;;;1.65;1.30;;;18.40;59.00;;;;;;10499927;28;20033;-60
2022/04/24 22:07:30;;;;;;;2.17;1.60;;;18.40;58.80;;;;;;10498930;28;20041;-60
2022/04/24 22:12:31;;;;;;;1.67;1.25;;;18.40;58.80;;;;;;10498829;28;20452;-60
2022/04/24 22:17:32;;;;;;;2.13;1.50;;;18.40;58.90;;;;;;10514424;28;20412;-59
2022/04/24 22:27:52;;;;;;;2.33;1.25;;;18.30;58.70;;;;;;10498166;28;20040;-60
2022/04/24 22:32:53;;;;;;;2.25;1.55;;;18.30;58.70;;;;;;10498316;28;20119;-60
2022/04/24 22:37:53;;;;;;;2.15;1.40;;;18.30;58.70;;;;;;10514008;28;20552;-60
2022/04/24 22:42:54;;;;;;;1.90;1.25;;;18.30;58.70;;;;;;10513323;28;20115;-61
2022/04/24 22:47:55;;;;;;;1.55;1.20;;;18.30;58.60;;;;;;10497432;28;20060;-61
2022/04/24 22:52:55;;;;;;;2.05;1.73;;;18.30;58.60;;;;;;10497111;28;20028;-60
2022/04/24 22:57:56;;;;;;;2.20;1.42;;;18.30;58.60;;;;;;10496923;28;20052;-60
2022/04/24 23:03:00;;;;;;;2.20;1.60;;;18.30;58.60;;;;;;10496536;28;20460;-59
2022/04/24 23:08:00;;;;;;;2.08;1.48;;;18.30;58.60;;;;;;10496454;28;20062;-59
2022/04/24 23:13:03;;;;;;;3.35;1.77;;;18.20;58.50;;;;;;10496441;28;20056;-59
2022/04/24 23:23:26;;;;;;;1.85;1.50;;;18.20;58.40;;;;;;10496268;28;20446;-58
2022/04/24 23:28:27;;;;;;;3.22;2.13;;;18.20;58.40;;;;;;10495583;28;20025;-60
2022/04/24 23:33:28;;;;;;;2.72;1.63;;;18.20;58.40;;;;;;10495922;28;20060;-60
2022/04/24 23:38:29;;;;;;;2.80;2.00;;;18.20;58.40;;;;;;10495063;28;20585;-60
2022/04/24 23:43:29;;;;;;;2.22;1.48;;;18.20;58.40;;;;;;10494979;28;20120;-60
2022/04/24 23:48:31;;;;;;;2.17;1.25;;;18.20;58.40;;;;;;10510860;28;20068;-60
2022/04/24 23:53:31;;;;;;;2.42;1.50;;;18.10;58.30;;;;;;10510443;28;20020;-59
2022/04/24 23:58:32;;;;;;;2.40;1.30;;;18.20;58.40;;;;;;10494739;28;20533;-59
